Time;durP1;ratioP1;P1;durP2;ratioP2;P2;SDS_P1;SDS_P2;PMS_P1;PMS_P2;Temp;Humidity;BMP_temperature;BMP_pressure;BME280_temperature;BME280_humidity;BME280_pressure;Samples;Min_cycle;Max_cycle;Signal;HPM_P1;HPM_P2
2023/12/23 00:05:54;;;;;;;1.50;0.40;;;;;;;9.93;90.89;101506.66;6196998;23;20020;-87
2023/12/23 02:39:08;;;;;;;2.15;1.23;;;;;;;6.37;100.00;101659.88;6193787;23;20033;-89
2023/12/23 02:41:43;;;;;;;2.95;1.52;;;;;;;6.32;100.00;101648.41;6210375;23;20448;-85
2023/12/23 02:44:14;;;;;;;5.25;1.65;;;;;;;6.30;100.00;101655.19;6214667;23;20020;-89
2023/12/23 02:46:46;;;;;;;3.78;1.52;;;;;;;6.32;100.00;101665.53;6210563;23;20032;-86
2023/12/23 02:54:22;;;;;;;5.90;2.83;;;;;;;6.23;100.00;101666.75;6211516;23;20024;-86
2023/12/23 02:56:52;;;;;;;3.63;1.92;;;;;;;6.23;100.00;101670.97;6211892;23;20028;-86
2023/12/23 02:59:24;;;;;;;6.50;2.50;;;;;;;6.17;100.00;101666.38;6212088;23;20025;-84
2023/12/23 03:01:53;;;;;;;10.50;3.63;;;;;;;6.15;100.00;101674.78;6212400;23;20025;-83
2023/12/23 03:04:22;;;;;;;11.43;3.70;;;;;;;6.13;100.00;101673.78;6216160;23;20023;-85
2023/12/23 03:06:51;;;;;;;10.13;3.95;;;;;;;6.05;100.00;101661.38;6211272;23;20079;-85
2023/12/23 03:09:39;;;;;;;14.80;4.15;;;;;;;6.07;100.00;101670.06;6213498;23;20021;-83
2023/12/23 03:25:11;;;;;;;8.70;2.78;;;;;;;5.69;100.00;101694.97;6221221;23;20463;-85
2023/12/23 03:27:49;;;;;;;12.25;2.85;;;;;;;5.63;100.00;101693.75;6210109;23;20024;-85
2023/12/23 03:30:19;;;;;;;8.48;3.22;;;;;;;5.63;100.00;101698.91;6212886;23;20055;-85
2023/12/23 03:32:48;;;;;;;5.68;1.92;;;;;;;5.56;100.00;101699.28;6209961;23;20165;-86
2023/12/23 03:35:17;;;;;;;6.60;2.20;;;;;;;5.62;100.00;101714.22;6212744;23;20055;-83
2023/12/23 03:37:53;;;;;;;8.18;3.63;;;;;;;5.58;100.00;101707.09;6211195;23;20079;-85
2023/12/23 03:40:23;;;;;;;5.70;3.17;;;;;;;5.55;100.00;101712.94;6213521;23;20025;-82
2023/12/23 03:42:53;;;;;;;9.27;3.15;;;;;;;5.54;100.00;101718.84;6213958;23;20071;-82
2023/12/23 03:45:23;;;;;;;5.93;2.60;;;;;;;5.56;100.00;101727.53;6212960;23;20024;-82
2023/12/23 03:47:53;;;;;;;12.82;7.15;;;;;;;5.50;100.00;101729.72;6212551;23;20024;-81
2023/12/23 03:50:21;;;;;;;28.75;17.02;;;;;;;5.38;100.00;101722.09;6212456;23;20079;-81
2023/12/23 03:52:50;;;;;;;8.25;4.95;;;;;;;5.31;100.00;101736.97;6211372;23;20028;-82
2023/12/23 03:55:19;;;;;;;26.73;14.88;;;;;;;5.16;100.00;101742.88;6212542;23;20029;-81
2023/12/23 03:57:58;;;;;;;8.70;5.22;;;;;;;5.09;100.00;101735.56;6212318;23;20472;-83
2023/12/23 04:00:28;;;;;;;47.08;24.65;;;;;;;5.13;100.00;101739.19;6212159;23;20028;-81
2023/12/23 04:02:56;;;;;;;11.57;3.97;;;;;;;5.05;100.00;101738.69;6212136;23;20108;-81
2023/12/23 04:05:27;;;;;;;11.27;3.67;;;;;;;4.92;100.00;101746.34;6212706;23;20067;-81
2023/12/23 04:07:56;;;;;;;10.00;4.18;;;;;;;4.76;100.00;101750.41;6212204;23;20017;-83
2023/12/23 04:10:25;;;;;;;7.95;2.75;;;;;;;4.68;100.00;101749.00;6211654;23;20021;-81
2023/12/23 04:12:55;;;;;;;12.75;4.32;;;;;;;4.73;100.00;101749.34;6211137;23;20427;-83
2023/12/23 04:15:25;;;;;;;7.90;3.63;;;;;;;4.78;100.00;101751.41;6212621;23;20456;-83
2023/12/23 04:17:55;;;;;;;6.70;4.05;;;;;;;4.78;100.00;101748.84;6213845;23;20088;-83
2023/12/23 04:20:24;;;;;;;7.75;3.40;;;;;;;4.80;100.00;101746.41;6215452;23;20021;-84
2023/12/23 04:22:53;;;;;;;5.47;3.30;;;;;;;4.81;100.00;101741.38;6212839;23;20052;-82
2023/12/23 04:25:22;;;;;;;8.20;4.82;;;;;;;4.84;100.00;101748.41;6201690;23;20044;-82
2023/12/23 04:27:54;;;;;;;5.30;2.80;;;;;;;4.82;100.00;101755.09;6182456;23;20341;-82
2023/12/23 04:30:25;;;;;;;6.55;3.00;;;;;;;4.86;100.00;101764.78;6182342;23;20013;-81
2023/12/23 04:32:54;;;;;;;7.03;3.22;;;;;;;4.82;100.00;101767.91;6180724;23;20025;-81
2023/12/23 04:35:23;;;;;;;9.02;3.60;;;;;;;4.71;100.00;101762.03;6182618;23;20063;-83
2023/12/23 04:37:52;;;;;;;9.73;4.38;;;;;;;4.72;100.00;101768.03;6181510;23;20049;-83
2023/12/23 04:40:24;;;;;;;8.10;4.20;;;;;;;4.63;100.00;101768.31;6182885;23;20153;-82
2023/12/23 04:42:53;;;;;;;15.75;5.63;;;;;;;4.61;100.00;101769.88;6182579;23;20357;-82
2023/12/23 04:45:21;;;;;;;14.65;7.00;;;;;;;4.61;100.00;101769.88;6181632;23;20597;-83
2023/12/23 04:47:52;;;;;;;13.93;6.57;;;;;;;4.64;100.00;101772.66;6182464;23;20025;-83
2023/12/23 04:50:29;;;;;;;17.27;5.88;;;;;;;4.64;100.00;101767.53;6181074;23;20036;-83
2023/12/23 04:52:58;;;;;;;20.83;7.53;;;;;;;4.65;100.00;101779.56;6182466;23;20025;-83
2023/12/23 04:55:27;;;;;;;14.70;5.93;;;;;;;4.63;100.00;101778.56;6186239;23;20021;-82
2023/12/23 04:57:56;;;;;;;20.58;6.32;;;;;;;4.61;100.00;101787.81;6184794;23;20017;-82
2023/12/23 05:00:32;;;;;;;12.13;5.78;;;;;;;4.51;100.00;101783.75;6182948;23;20021;-83
2023/12/23 05:03:03;;;;;;;17.45;5.97;;;;;;;4.47;100.00;101776.59;6183277;23;20020;-83
2023/12/23 05:05:31;;;;;;;20.45;5.65;;;;;;;4.44;100.00;101783.19;6180819;23;20060;-83
2023/12/23 05:08:16;;;;;;;;;;;;;;;;;;;;;
2023/12/23 05:10:45;;;;;;;11.95;4.45;;;;;;;4.30;100.00;101780.53;6180855;23;20389;-83
2023/12/23 05:13:14;;;;;;;13.07;4.63;;;;;;;4.28;100.00;101787.19;6182671;23;20017;-82
2023/12/23 05:15:45;;;;;;;11.70;4.78;;;;;;;4.28;100.00;101804.25;6184139;23;20021;-83
2023/12/23 05:18:16;;;;;;;10.05;4.43;;;;;;;4.27;100.00;101793.13;6181891;23;20018;-84
2023/12/23 05:20:45;;;;;;;12.52;4.53;;;;;;;4.19;100.00;101799.34;6184464;23;20036;-82
2023/12/23 05:23:13;;;;;;;9.68;4.75;;;;;;;4.14;100.00;101806.72;6184209;23;20024;-83
2023/12/23 05:25:42;;;;;;;16.23;4.90;;;;;;;4.06;100.00;101794.16;6184125;23;20043;-82
2023/12/23 05:28:12;;;;;;;13.45;5.38;;;;;;;3.99;100.00;101796.25;6183243;23;20104;-82
2023/12/23 05:30:41;;;;;;;10.88;4.25;;;;;;;4.03;100.00;101799.91;6184432;23;20017;-83
2023/12/23 05:33:11;;;;;;;10.15;4.38;;;;;;;4.04;100.00;101808.50;6184157;23;20025;-82
2023/12/23 05:35:42;;;;;;;10.85;4.78;;;;;;;4.05;100.00;101812.84;6186009;23;20029;-83
2023/12/23 05:38:11;;;;;;;10.95;3.90;;;;;;;4.01;100.00;101814.31;6182986;23;20024;-84
2023/12/23 05:40:40;;;;;;;16.95;5.10;;;;;;;3.98;100.00;101811.50;6183457;23;20033;-83
2023/12/23 05:43:09;;;;;;;20.05;5.40;;;;;;;3.97;100.00;101817.41;6183282;23;20020;-83
2023/12/23 05:45:38;;;;;;;9.45;3.92;;;;;;;3.94;100.00;101817.19;6183122;23;20012;-83
2023/12/23 05:48:07;;;;;;;17.20;4.50;;;;;;;3.97;100.00;101830.22;6182965;23;20058;-83
2023/12/23 05:50:36;;;;;;;11.55;4.35;;;;;;;3.96;100.00;101828.44;6183752;23;20096;-83
2023/12/23 05:53:08;;;;;;;17.58;4.72;;;;;;;3.94;100.00;101830.91;6182638;23;20017;-85
2023/12/23 05:55:37;;;;;;;9.57;3.70;;;;;;;3.94;100.00;101833.47;6183323;23;20077;-84
2023/12/23 05:58:06;;;;;;;8.55;3.42;;;;;;;3.90;100.00;101831.44;6183688;23;20020;-83
2023/12/23 06:00:35;;;;;;;15.07;4.50;;;;;;;3.85;100.00;101831.88;6183382;23;20049;-83
2023/12/23 06:03:03;;;;;;;7.63;3.25;;;;;;;3.79;100.00;101842.56;6183337;23;20047;-84
2023/12/23 06:05:33;;;;;;;16.67;4.18;;;;;;;3.77;100.00;101844.09;6182854;23;20024;-84
2023/12/23 06:08:02;;;;;;;10.32;3.22;;;;;;;3.75;100.00;101840.53;6183426;23;20083;-83
2023/12/23 06:10:33;;;;;;;7.68;3.17;;;;;;;3.71;100.00;101833.41;6183762;23;20021;-83
2023/12/23 06:13:02;;;;;;;10.98;3.97;;;;;;;3.71;100.00;101834.31;6185500;23;20068;-84
2023/12/23 06:15:32;;;;;;;9.63;3.67;;;;;;;3.62;100.00;101822.47;6182822;23;20472;-84
2023/12/23 06:18:02;;;;;;;8.75;3.83;;;;;;;3.62;100.00;101832.72;6183599;23;20059;-83
2023/12/23 06:20:32;;;;;;;12.32;3.67;;;;;;;3.53;100.00;101833.84;6183404;23;20021;-83
2023/12/23 06:23:01;;;;;;;9.35;3.25;;;;;;;3.55;100.00;101836.47;6182227;23;20020;-82
2023/12/23 06:25:32;;;;;;;9.48;3.47;;;;;;;3.52;100.00;101849.94;6196128;23;20103;-83
2023/12/23 06:28:01;;;;;;;10.70;3.67;;;;;;;3.53;100.00;101853.41;6213237;23;20459;-82
2023/12/23 06:30:30;;;;;;;10.40;3.72;;;;;;;3.52;100.00;101852.50;6214009;23;20103;-82
2023/12/23 06:32:59;;;;;;;13.55;3.13;;;;;;;3.50;100.00;101856.63;6213093;23;20520;-83
2023/12/23 06:35:28;;;;;;;9.68;3.25;;;;;;;3.50;100.00;101863.41;6213654;23;20017;-83
2023/12/23 06:37:57;;;;;;;9.45;3.25;;;;;;;3.45;100.00;101859.63;6212713;23;20105;-83
2023/12/23 06:40:26;;;;;;;8.60;2.78;;;;;;;3.45;100.00;101859.63;6213725;23;20096;-83
2023/12/23 06:42:56;;;;;;;6.47;3.17;;;;;;;3.47;100.00;101860.63;6213286;23;20017;-83
2023/12/23 06:45:25;;;;;;;7.43;3.00;;;;;;;3.45;100.00;101865.63;6213799;23;20031;-83
2023/12/23 06:47:54;;;;;;;5.72;2.88;;;;;;;3.41;100.00;101855.03;6213007;23;20017;-84
2023/12/23 06:50:31;;;;;;;7.47;3.42;;;;;;;3.37;100.00;101859.03;6218166;23;20063;-83
2023/12/23 06:53:00;;;;;;;7.65;3.40;;;;;;;3.32;100.00;101874.03;6212085;23;20051;-84
2023/12/23 06:55:34;;;;;;;8.63;2.45;;;;;;;3.29;100.00;101868.66;6212521;23;20021;-83
2023/12/23 06:58:12;;;;;;;6.88;3.22;;;;;;;3.32;100.00;101875.69;6213371;23;20027;-84
2023/12/23 07:00:44;;;;;;;8.68;2.80;;;;;;;3.29;100.00;101870.34;6212329;23;20027;-83
2023/12/23 07:03:13;;;;;;;5.72;2.90;;;;;;;3.31;100.00;101887.59;6213208;23;20493;-83
2023/12/23 07:05:44;;;;;;;4.90;2.92;;;;;;;3.28;100.00;101878.81;6212517;23;20013;-83
2023/12/23 07:08:15;;;;;;;6.22;3.00;;;;;;;3.17;100.00;101872.84;6212694;23;20523;-84
2023/12/23 07:10:44;;;;;;;4.38;2.38;;;;;;;3.20;100.00;101879.88;6211498;23;20016;-84
2023/12/23 07:13:14;;;;;;;4.45;2.65;;;;;;;3.22;100.00;101875.75;6212959;23;20063;-85
2023/12/23 07:15:42;;;;;;;7.47;3.22;;;;;;;3.21;100.00;101886.75;6212953;23;20021;-83
2023/12/23 07:18:13;;;;;;;3.80;2.63;;;;;;;3.16;100.00;101886.41;6213385;23;20099;-83
2023/12/23 07:20:44;;;;;;;6.25;2.20;;;;;;;3.15;100.00;101889.75;6213411;23;20028;-83
2023/12/23 07:23:14;;;;;;;9.45;2.63;;;;;;;3.12;100.00;101887.84;6213073;23;20023;-83
2023/12/23 07:25:45;;;;;;;3.30;1.98;;;;;;;3.14;100.00;101895.66;6213359;23;20028;-83
2023/12/23 07:28:23;;;;;;;9.15;2.45;;;;;;;3.12;100.00;101892.97;6216767;23;20024;-83
2023/12/23 07:30:55;;;;;;;7.22;2.83;;;;;;;3.14;100.00;101887.97;6212863;23;20168;-82
2023/12/23 07:33:24;;;;;;;4.32;2.53;;;;;;;3.10;100.00;101886.84;6212458;23;20087;-83
2023/12/23 07:35:58;;;;;;;10.18;2.25;;;;;;;3.04;100.00;101899.13;6212258;23;20024;-83
2023/12/23 07:38:27;;;;;;;6.45;2.80;;;;;;;3.00;100.00;101903.88;6212907;23;20087;-83
2023/12/23 07:40:56;;;;;;;10.20;2.72;;;;;;;2.99;100.00;101889.34;6212425;23;20447;-84
2023/12/23 07:43:25;;;;;;;15.00;3.08;;;;;;;2.94;100.00;101892.41;6212428;23;20013;-84
2023/12/23 07:46:00;;;;;;;7.50;2.30;;;;;;;3.03;100.00;101902.47;6211867;23;20017;-83
2023/12/23 07:48:29;;;;;;;9.90;3.20;;;;;;;3.02;100.00;101918.56;6211686;23;20017;-85
2023/12/23 07:50:58;;;;;;;8.63;3.25;;;;;;;2.94;100.00;101909.44;6210277;23;20025;-84
2023/12/23 07:53:27;;;;;;;6.07;2.30;;;;;;;2.91;100.00;101915.19;6210801;23;20017;-84
2023/12/23 07:56:07;;;;;;;4.00;1.83;;;;;;;2.82;100.00;101913.56;6210628;23;20023;-83
2023/12/23 07:58:40;;;;;;;10.85;2.95;;;;;;;2.71;100.00;101916.16;6212861;23;20028;-84
2023/12/23 08:01:13;;;;;;;6.80;2.92;;;;;;;2.61;100.00;101908.56;6211602;23;20071;-84
2023/12/23 08:03:44;;;;;;;;;;;;;;;2.63;100.00;101917.19;6212036;23;20028;-84
2023/12/23 08:06:15;;;;;;;7.63;3.28;;;;;;;2.66;100.00;101922.56;6215133;23;19951;-84
2023/12/23 08:08:44;;;;;;;8.93;3.10;;;;;;;2.63;100.00;101922.31;6211467;23;20051;-84
2023/12/23 08:11:22;;;;;;;6.05;2.33;;;;;;;2.59;100.00;101924.50;6212179;23;20467;-84
2023/12/23 08:13:53;;;;;;;8.48;2.63;;;;;;;2.56;100.00;101914.94;6211232;23;20021;-84
2023/12/23 08:16:22;;;;;;;6.22;2.47;;;;;;;2.58;100.00;101921.06;6212272;23;20043;-82
2023/12/23 08:18:51;;;;;;;8.77;3.53;;;;;;;2.53;100.00;101913.81;6212656;23;20025;-83
2023/12/23 08:21:30;;;;;;;9.10;3.63;;;;;;;2.52;100.00;101920.59;6212937;23;20099;-83
2023/12/23 08:24:01;;;;;;;16.38;6.18;;;;;;;2.50;100.00;101909.34;6213491;23;20024;-82
2023/12/23 08:26:30;;;;;;;14.90;5.22;;;;;;;2.56;100.00;101914.94;6213543;23;20075;-82
2023/12/23 08:29:05;;;;;;;15.50;5.88;;;;;;;2.54;100.00;101915.56;6214850;23;20052;-82
2023/12/23 08:31:34;;;;;;;14.00;5.68;;;;;;;2.45;100.00;101910.63;6213605;23;20452;-86
2023/12/23 08:34:02;;;;;;;10.70;5.20;;;;;;;2.47;100.00;101916.75;6213953;23;20036;-84
2023/12/23 08:36:31;;;;;;;17.40;5.80;;;;;;;2.49;100.00;101917.75;6213556;23;20021;-83
2023/12/23 08:39:10;;;;;;;12.57;5.07;;;;;;;2.45;100.00;101916.66;6214403;23;20079;-84
2023/12/23 08:41:39;;;;;;;15.07;5.78;;;;;;;2.43;100.00;101914.75;6215054;23;20040;-85
2023/12/23 08:44:10;;;;;;;13.77;5.53;;;;;;;2.50;100.00;101925.56;6214241;23;20013;-84
2023/12/23 08:46:41;;;;;;;10.07;4.35;;;;;;;2.48;100.00;101928.78;6214073;23;20392;-84
2023/12/23 08:49:10;;;;;;;8.88;4.72;;;;;;;2.44;100.00;101924.16;6212507;23;20025;-86
2023/12/23 08:51:39;;;;;;;12.13;4.22;;;;;;;2.38;100.00;101928.78;6213308;23;20020;-84
2023/12/23 08:54:08;;;;;;;14.65;4.97;;;;;;;2.35;100.00;101941.31;6212510;23;20017;-84
2023/12/23 08:56:37;;;;;;;11.23;4.53;;;;;;;2.30;100.00;101930.72;6214456;23;20020;-84
2023/12/23 08:59:06;;;;;;;10.60;4.07;;;;;;;2.33;100.00;101935.19;6214204;23;20042;-83
2023/12/23 09:01:36;;;;;;;10.18;4.28;;;;;;;2.32;100.00;101943.63;6213853;23;20031;-83
2023/12/23 09:04:05;;;;;;;11.50;3.28;;;;;;;2.30;100.00;101944.38;6213363;23;20336;-83
2023/12/23 09:06:35;;;;;;;7.60;3.70;;;;;;;2.29;100.00;101939.13;6214319;23;20016;-82
2023/12/23 09:09:07;;;;;;;14.38;4.47;;;;;;;2.28;100.00;101937.34;6213237;23;20036;-83
2023/12/23 09:11:42;;;;;;;14.98;4.40;;;;;;;2.22;100.00;101934.28;6214185;23;20017;-83
2023/12/23 09:14:11;;;;;;;9.20;4.00;;;;;;;2.25;100.00;101948.22;6214034;23;20028;-82
2023/12/23 09:16:41;;;;;;;11.18;3.83;;;;;;;2.29;100.00;101954.44;6213925;23;20016;-81
2023/12/23 09:19:15;;;;;;;8.32;4.10;;;;;;;2.28;100.00;101952.69;6214469;23;20047;-81
2023/12/23 09:21:47;;;;;;;8.30;4.07;;;;;;;2.30;100.00;101957.13;6217014;23;20020;-83
2023/12/23 09:24:18;;;;;;;13.88;4.32;;;;;;;2.35;100.00;101969.41;6213739;23;20024;-84
2023/12/23 09:26:47;;;;;;;8.73;3.38;;;;;;;2.34;100.00;101962.50;6184167;23;20530;-84
2023/12/23 09:29:22;;;;;;;10.75;3.97;;;;;;;2.33;100.00;101960.72;6183308;23;20079;-85
2023/12/23 09:31:53;;;;;;;6.95;3.13;;;;;;;2.36;100.00;101973.72;6182645;23;20021;-85
2023/12/23 09:34:22;;;;;;;10.93;3.65;;;;;;;2.36;100.00;101966.06;6182448;23;20017;-84
2023/12/23 09:36:59;;;;;;;10.43;3.05;;;;;;;2.33;100.00;101965.81;6182998;23;20047;-84
2023/12/23 09:39:29;;;;;;;9.07;3.05;;;;;;;2.36;100.00;101967.00;6181995;23;20024;-85
2023/12/23 09:42:00;;;;;;;8.75;2.88;;;;;;;2.37;100.00;101971.31;6183175;23;20021;-83
2023/12/23 09:44:29;;;;;;;8.50;3.40;;;;;;;2.41;100.00;101980.13;6182874;23;20099;-83
2023/12/23 09:47:05;;;;;;;4.97;2.78;;;;;;;2.40;100.00;101980.88;6183831;23;20068;-82
2023/12/23 09:49:36;;;;;;;6.95;3.45;;;;;;;2.44;100.00;101985.47;6183580;23;20029;-82
2023/12/23 09:52:06;;;;;;;7.68;3.13;;;;;;;2.45;100.00;101995.84;6183340;23;20021;-83
2023/12/23 09:54:50;;;;;;;13.55;3.75;;;;;;;2.35;100.00;101982.16;6182169;23;20424;-82
2023/12/23 09:57:19;;;;;;;8.00;3.17;;;;;;;2.24;100.00;101987.28;6184545;23;20045;-83
2023/12/23 09:59:59;;;;;;;10.95;3.92;;;;;;;2.17;100.00;101987.53;6185427;23;20016;-83
2023/12/23 10:02:30;;;;;;;13.23;4.47;;;;;;;2.23;100.00;101993.16;6180476;23;20068;-84
2023/12/23 10:04:59;;;;;;;10.32;3.88;;;;;;;2.21;100.00;101999.81;6182094;23;20036;-84
2023/12/23 10:07:28;;;;;;;5.65;3.22;;;;;;;2.27;100.00;102005.44;6181704;23;20130;-85
2023/12/23 10:10:03;;;;;;;7.22;3.08;;;;;;;2.25;100.00;102004.41;6182588;23;20028;-86
2023/12/23 10:12:32;;;;;;;6.63;3.47;;;;;;;2.34;100.00;102013.56;6183099;23;20068;-85
2023/12/23 10:15:01;;;;;;;10.68;2.90;;;;;;;2.35;100.00;102017.94;6182341;23;20025;-86
2023/12/23 10:17:50;;;;;;;;;;;;;;;;;;;;;
2023/12/23 10:43:08;;;;;;;3.65;1.95;;;;;;;2.58;100.00;102017.28;6199022;23;20079;-85
2023/12/23 10:45:39;;;;;;;4.55;2.17;;;;;;;2.59;100.00;102027.63;6205430;23;20075;-84
2023/12/23 10:48:10;;;;;;;5.95;2.95;;;;;;;2.67;100.00;102038.47;6212269;23;20075;-84
2023/12/23 10:50:52;;;;;;;5.95;2.63;;;;;;;2.68;100.00;102038.59;6211596;23;20099;-85
2023/12/23 10:53:22;;;;;;;4.53;2.20;;;;;;;2.68;100.00;102025.81;6211586;23;20017;-85
2023/12/23 10:55:52;;;;;;;3.80;2.42;;;;;;;2.72;100.00;102032.94;6211389;23;20017;-86
2023/12/23 10:58:32;;;;;;;9.10;2.65;;;;;;;2.71;100.00;102028.63;6212129;23;20027;-85
2023/12/23 11:01:01;;;;;;;8.00;2.90;;;;;;;2.77;100.00;102032.44;6211230;23;20028;-84
2023/12/23 11:03:32;;;;;;;5.00;2.33;;;;;;;2.82;100.00;102043.91;6211825;23;20023;-84
2023/12/23 11:06:07;;;;;;;6.03;2.20;;;;;;;2.86;100.00;102048.50;6212289;23;20104;-85
2023/12/23 11:08:38;;;;;;;8.93;3.03;;;;;;;2.86;100.00;102043.41;6211839;23;20092;-84
2023/12/23 11:11:07;;;;;;;11.15;2.97;;;;;;;2.93;100.00;102050.78;6212610;23;20079;-84
2023/12/23 11:13:48;;;;;;;8.90;2.83;;;;;;;2.89;100.00;102042.00;6213773;23;20016;-86
2023/12/23 12:02:49;;;;;;;12.32;2.70;;;;;;;3.26;100.00;102026.16;6207509;23;20040;-85
2023/12/23 12:05:18;;;;;;;6.18;2.33;;;;;;;3.30;100.00;102017.97;6211047;23;20075;-86
2023/12/23 12:07:48;;;;;;;5.40;1.80;;;;;;;3.31;100.00;102010.38;6210606;23;20112;-84
2023/12/23 12:10:21;;;;;;;5.22;2.42;;;;;;;3.28;100.00;101999.03;6212046;23;20036;-85
2023/12/23 12:12:53;;;;;;;11.25;2.80;;;;;;;3.28;100.00;101999.91;6211153;23;20027;-85
2023/12/23 12:15:26;;;;;;;6.80;2.80;;;;;;;3.32;100.00;102016.38;6211450;23;20028;-86
2023/12/23 12:18:10;;;;;;;7.82;2.72;;;;;;;3.33;100.00;102013.06;6211348;23;20024;-85
2023/12/23 12:20:42;;;;;;;7.00;2.65;;;;;;;3.31;100.00;102014.59;6210824;23;20041;-85
2023/12/23 12:23:13;;;;;;;16.10;3.00;;;;;;;3.33;100.00;102018.19;6211453;23;20031;-86
2023/12/23 12:25:56;;;;;;;10.00;3.60;;;;;;;3.30;100.00;102007.72;6211231;23;20024;-87
2023/12/23 12:28:33;;;;;;;5.90;2.63;;;;;;;3.28;100.00;102004.16;6211995;23;20021;-86
2023/12/23 12:54:18;;;;;;;5.18;2.50;;;;;;;3.33;100.00;102024.19;6187710;23;20017;-88
2023/12/23 12:56:47;;;;;;;4.05;2.13;;;;;;;3.33;100.00;102028.41;6183597;23;20017;-90
2023/12/23 12:59:17;;;;;;;6.15;2.25;;;;;;;3.29;100.00;102022.16;6183573;23;20025;-89
2023/12/23 13:01:55;;;;;;;4.55;2.30;;;;;;;3.36;100.00;102019.31;6183300;23;20481;-88
2023/12/23 14:28:46;;;;;;;4.82;2.00;;;;;;;3.70;100.00;102052.66;6204016;23;19923;-88
2023/12/23 14:31:16;;;;;;;7.40;2.67;;;;;;;3.76;100.00;102058.25;6214216;23;20032;-89
2023/12/23 14:33:45;;;;;;;3.95;1.65;;;;;;;3.76;100.00;102058.25;6215008;23;20020;-88
2023/12/23 14:36:20;;;;;;;2.83;1.50;;;;;;;3.76;100.00;102052.25;6202014;23;20025;-88
2023/12/23 14:38:50;;;;;;;6.93;2.17;;;;;;;3.73;100.00;102052.91;6215264;23;20514;-87
2023/12/23 14:41:19;;;;;;;2.28;1.25;;;;;;;3.69;100.00;102060.25;6213037;23;20100;-87
2023/12/23 14:43:58;;;;;;;12.05;1.17;;;;;;;3.63;100.00;102054.63;6214053;23;20021;-87
2023/12/23 14:46:28;;;;;;;3.17;1.27;;;;;;;3.65;100.00;102063.31;6213024;23;20021;-87
2023/12/23 14:48:57;;;;;;;5.32;1.27;;;;;;;3.65;100.00;102073.56;6213316;23;20020;-88
2023/12/23 14:51:38;;;;;;;6.30;1.30;;;;;;;3.63;100.00;102067.44;6215980;23;20044;-87
2023/12/23 14:54:10;;;;;;;2.53;1.05;;;;;;;3.60;100.00;102065.53;6212439;23;20476;-87
2023/12/23 14:56:39;;;;;;;1.83;1.00;;;;;;;3.60;100.00;102062.03;6213215;23;20020;-89
2023/12/23 14:59:10;;;;;;;2.08;1.23;;;;;;;3.61;100.00;102072.41;6211512;23;20020;-87
2023/12/23 15:01:41;;;;;;;2.95;1.77;;;;;;;3.56;100.00;102069.50;6217141;23;20039;-86
2023/12/23 15:04:11;;;;;;;3.22;1.08;;;;;;;3.60;100.00;102075.75;6212162;23;20036;-86
2023/12/23 15:06:40;;;;;;;2.85;1.38;;;;;;;3.58;100.00;102077.31;6213019;23;20074;-86
2023/12/23 15:09:09;;;;;;;5.13;1.02;;;;;;;3.61;100.00;102076.66;6211641;23;20027;-87
2023/12/23 15:11:48;;;;;;;2.58;0.98;;;;;;;3.59;100.00;102078.19;6212297;23;20025;-87
2023/12/23 16:31:28;;;;;;;2.05;0.70;;;;;;;3.15;100.00;102079.88;6200180;23;20028;-87
2023/12/23 16:33:57;;;;;;;1.23;0.88;;;;;;;3.25;100.00;102095.97;6209810;23;20040;-87
2023/12/23 16:36:26;;;;;;;1.63;0.85;;;;;;;3.26;100.00;102092.66;6207192;23;20024;-89
2023/12/23 16:38:55;;;;;;;2.38;0.98;;;;;;;3.26;100.00;102085.00;6212691;23;20040;-89
2023/12/23 16:41:24;;;;;;;3.60;1.27;;;;;;;3.27;100.00;102086.75;6211849;23;20550;-89
2023/12/23 16:43:53;;;;;;;1.02;0.77;;;;;;;3.32;100.00;102080.34;6212140;23;20021;-89
2023/12/23 16:46:26;;;;;;;1.83;1.00;;;;;;;3.35;100.00;102078.03;6213017;23;20021;-89
2023/12/23 16:54:11;;;;;;;0.70;0.57;;;;;;;3.29;100.00;102087.78;6203268;23;20020;-92
2023/12/23 17:12:13;;;;;;;1.92;1.00;;;;;;;2.93;100.00;102084.94;6196052;23;20016;-89
2023/12/23 17:14:43;;;;;;;2.72;1.52;;;;;;;2.93;100.00;102091.69;6215811;23;20019;-93
2023/12/23 17:17:12;;;;;;;7.72;2.67;;;;;;;2.96;100.00;102097.09;6212737;23;20027;-82
2023/12/23 17:19:41;;;;;;;6.65;1.73;;;;;;;3.01;100.00;102106.00;6212293;23;20020;-85
2023/12/23 17:22:13;;;;;;;9.60;1.33;;;;;;;3.11;100.00;102112.75;6211797;23;20099;-85
2023/12/23 17:24:42;;;;;;;1.67;1.20;;;;;;;3.20;100.00;102112.63;6213873;23;20024;-84
2023/12/23 17:27:15;;;;;;;47.72;21.90;;;;;;;3.27;100.00;102112.34;6213812;23;20027;-82
2023/12/23 17:29:44;;;;;;;61.80;25.33;;;;;;;3.36;100.00;102120.75;6212766;23;20087;-87
2023/12/23 17:32:13;;;;;;;107.88;42.05;;;;;;;3.47;100.00;102119.06;6216386;23;20047;-85
2023/12/23 17:34:42;;;;;;;75.45;27.45;;;;;;;3.50;100.00;102124.41;6212236;23;20068;-86
2023/12/23 17:37:11;;;;;;;12.45;1.90;;;;;;;3.42;100.00;102111.03;6213533;23;20013;-86
2023/12/23 17:57:50;;;;;;;6.53;1.55;;;;;;;3.98;100.00;102131.63;6204498;23;20016;-90
2023/12/23 18:08:05;;;;;;;1.50;1.05;;;;;;;3.80;100.00;102161.78;6206584;23;20020;-86
2023/12/23 18:46:40;;;;;;;1.38;0.60;;;;;;;4.81;100.00;102079.88;6198585;23;20012;-88
2023/12/23 19:48:43;;;;;;;2.70;1.55;;;;;;;6.52;100.00;102026.72;6212818;23;20021;-87
2023/12/23 20:43:02;;;;;;;5.57;1.42;;;;;;;7.25;100.00;101933.66;6211193;23;20025;-87
2023/12/23 21:52:52;;;;;;;2.63;1.10;;;;;;;6.61;100.00;101819.03;6206479;23;20024;-84
2023/12/23 21:55:27;;;;;;;2.70;1.70;;;;;;;6.23;100.00;101818.38;6213387;23;20027;-85
2023/12/23 21:57:57;;;;;;;3.53;1.42;;;;;;;5.81;100.00;101814.75;6213341;23;20079;-85
2023/12/23 22:00:27;;;;;;;5.78;1.60;;;;;;;5.71;100.00;101821.78;6212143;23;20016;-88
2023/12/23 22:02:56;;;;;;;1.83;0.80;;;;;;;5.64;100.00;101813.66;6213871;23;20016;-84
2023/12/23 22:05:36;;;;;;;1.65;1.30;;;;;;;5.65;100.00;101807.72;6212634;23;20448;-89
2023/12/23 22:08:09;;;;;;;3.42;1.23;;;;;;;5.65;100.00;101810.28;6214677;23;20017;-85
2023/12/23 22:10:37;;;;;;;3.13;1.40;;;;;;;5.79;100.00;101807.75;6213958;23;20024;-85
2023/12/23 22:13:14;;;;;;;3.10;1.70;;;;;;;5.94;100.00;101813.94;6214295;23;20075;-88
2023/12/23 22:15:43;;;;;;;2.97;1.20;;;;;;;6.10;100.00;101812.38;6213183;23;20017;-85
2023/12/23 22:18:12;;;;;;;3.70;1.67;;;;;;;6.23;100.00;101804.63;6210310;23;20501;-86
2023/12/23 22:20:48;;;;;;;3.28;1.30;;;;;;;6.26;100.00;101815.13;6211847;23;20017;-87
2023/12/23 22:23:19;;;;;;;6.05;1.70;;;;;;;6.19;100.00;101805.25;6201850;23;20356;-86
2023/12/23 22:25:51;;;;;;;1.77;1.10;;;;;;;6.33;100.00;101812.16;6211419;23;20025;-86
2023/12/23 22:35:56;;;;;;;2.22;1.13;;;;;;;6.67;100.00;101812.59;6207898;23;20020;-84
2023/12/23 22:38:33;;;;;;;4.40;1.20;;;;;;;6.81;100.00;101812.56;6213626;23;20031;-84
2023/12/23 22:41:02;;;;;;;2.38;1.40;;;;;;;6.95;100.00;101816.84;6213217;23;20028;-85
2023/12/23 22:43:31;;;;;;;3.97;1.45;;;;;;;7.06;100.00;101814.94;6208921;23;20322;-85
